Buen Pasto, Argentina
Current Conditions -  °F | °C
As of 12:00 AM on Tuesday 23 Dec 2014 (Local Time) from SAVC Reporting Station
Clear Clear  
Wind Chill: 17°   Ceiling: Unl
Heat Index: 17°   Visibility: 6mi
Dew Point:   Wind: 35mph
Humidity: 59%   Direction: 290°WNW
Pressure: 29.65"   Gusts: 54mph
Location:  45.08°S, 69.47°W
Report Text: SAVC 230300Z 29030G47KT CAVOK 17/09 Q1004
Loading
Personal Weather Stations






























Interactive Weather Map New forecast layout! Learn more

10-Day Weather Forecast

Advertisements
Track Severe Weather on mobile